• Join FlightAware (Why Join?)
  • Login
  • US Flag 
12:19AM EST


 

Airport Tracker/Info


-or-


 

Live Flight TrackerFlight Track Log ✈ FSR411 ✈ 19-Oct-2013 ✈ KDET - KVQQ

Flight Track Log - Related Links

Times and Time Zones

All times are in EDT time to prevent confusion due to time zone crossing. See the FSR411 flight status page for this flight to view local times or setup timezone preferences in your user account.

Time Position Orientation Groundspeed Altitude Reporting Facility
EDT Latitude Longitude Course Direction KTS MPH feet Rate Location/Type
12:38PM 42.4561 -83.0544 323° Northwest 221 254 2,400  Level Cleveland Center
12:39PM 42.5064 -83.0019 38° Northeast 262 302 4,000 1,500 Climbing Cleveland Center
12:40PM 42.4939 -82.9622 113° Southeast 259 298 4,600 840 Climbing Cleveland Center
12:40PM 42.4564 -82.9386 155° Southeast 267 307 4,900 360 Climbing Cleveland Center
12:41PM 42.4247 -82.9222 159° South 268 308 5,000 60 Climbing Cleveland Center
12:41PM 42.3839 -82.9006 159° South 272 313 5,000  Level Cleveland Center
12:42PM 42.3533 -82.8856 160° South 271 312 5,000 1,260 Level Cleveland Center
12:42PM 42.3133 -82.8631 157° South 272 313 6,300 2,580 Climbing Cleveland Center
12:43PM 42.2828 -82.8483 160° South 272 313 7,700 3,060 Climbing Cleveland Center
12:44PM 42.2203 -82.8617 189° South 266 306 11,000 2,280 Climbing Cleveland Center
12:45PM 42.1711 -82.9547 235° Southwest 320 368 12,400 960 Climbing Cleveland Center
12:46PM 42.0892 -83.0167 209° Southwest 334 384 13,000 720 Climbing Cleveland Center
12:47PM 42.0078 -83.0786 209° Southwest 333 383 13,900 1,920 Climbing Cleveland Center
12:48PM 41.9239 -83.1431 210° Southwest 341 392 17,000 3,480 Climbing Cleveland Center
12:49PM 41.8236 -83.2194 210° Southwest 344 396 21,100 3,600 Climbing Cleveland Center
12:50PM 41.7356 -83.2658 201° Southwest 341 392 24,400 2,760 Climbing Cleveland Center
12:51PM 41.6489 -83.3133 202° Southwest 337 388 26,900 2,220 Climbing Cleveland Center
12:52PM 41.5594 -83.3611 202° Southwest 343 395 29,000 1,800 Climbing Cleveland Center
12:53PM 41.4700 -83.4089 202° Southwest 346 398 30,600 1,440 Climbing Cleveland Center
12:54PM 41.3797 -83.4581 202° Southwest 350 403 32,000 780 Climbing Cleveland Center
12:56PM 41.2469 -83.3900 176° South  Level FlightAware Approximate
01:03PM 40.5079 -83.3149 171° South  Level FlightAware Approximate
01:04PM 40.4028 -83.2980 177° South  Level FlightAware Approximate
01:05PM 40.2064 -83.3692 175° South 394 453 40,000  Level Indianapolis Center
01:07PM 40.0855 -83.2693 174° South  Level FlightAware Approximate
01:08PM 39.9797 -83.2597 176° South  Level FlightAware Approximate
01:09PM 39.8739 -83.2512 176° South  Level FlightAware Approximate
01:09PM 39.8340 -83.3062 175° South  Level Estimated
01:10PM 39.7680 -83.2427 176° South  Level FlightAware Approximate
01:11PM 39.6622 -83.2343 176° South  Level FlightAware Approximate
01:11PM 39.5250 -83.2939 178° South 405 466 42,200  Level Indianapolis Center
01:12PM 39.5565 -83.2233 175° South  Level FlightAware Approximate
01:15PM 39.0528 -83.2431 175° South 411 473 43,000  Level Indianapolis Center
01:16PM 39.0997 -83.1840 175° South  Level Estimated
01:16PM 38.9372 -83.2294 175° South 417 480 43,000  Level Indianapolis Center
01:17PM 38.9948 -83.1668 176° South  Level Estimated
01:17PM 38.8214 -83.2189 176° South 417 480 43,000  Level Indianapolis Center
01:18PM 38.8891 -83.1611 178° South  Level FlightAware Approximate
01:18PM 38.7067 -83.2064 175° South 413 475 43,000  Level Indianapolis Center
01:19PM 38.7835 -83.1556 178° South  Level FlightAware Approximate
01:19PM 38.5814 -83.1911 175° South 415 478 43,000  Level Indianapolis Center
01:20PM 38.6778 -83.1500 178° South  Level FlightAware Approximate
01:20PM 38.4642 -83.1794 176° South 419 482 43,000  Level Indianapolis Center
01:21PM 38.3461 -83.1681 176° South 424 488 43,000  Level Indianapolis Center
01:22PM 38.2269 -83.1556 175° South 427 491 43,000  Level Indianapolis Center
01:23PM 38.1089 -83.1422 175° South 425 489 43,000  Level Indianapolis Center
01:24PM 37.9703 -83.1286 176° South 428 493 43,000  Level Indianapolis Center
01:26PM 37.8508 -83.1150 175° South 429 494 43,000  Level Indianapolis Center
01:27PM 37.7308 -83.1031 175° South 431 496 43,000  Level Indianapolis Center
01:28PM 37.6114 -83.0911 175° South 431 496 43,000  Level Indianapolis Center
01:29PM 37.4931 -83.0797 176° South 427 491 43,000  Level Indianapolis Center
01:30PM 37.3739 -83.0675 175° South 428 493 43,000  Level Indianapolis Center
01:31PM 37.2553 -83.0544 175° South 426 490 43,000  Level Indianapolis Center
01:32PM 37.1178 -83.0411 176° South 424 488 43,000  Level Indianapolis Center
01:33PM 37.0014 -83.0300 176° South 423 487 43,000  Level Indianapolis Center
01:34PM 36.8867 -83.0181 175° South 424 488 43,000  Level Indianapolis Center
01:35PM 36.7706 -83.0061 175° South 425 489 43,000  Level Indianapolis Center
01:36PM 36.6556 -82.9936 175° South 418 481 43,000  Level Indianapolis Center
01:37PM 36.5236 -82.9806 175° South 409 471 43,000  Level Indianapolis Center
01:38PM 36.4106 -82.9675 175° South 408 470 43,000  Level Indianapolis Center
01:39PM 36.2986 -82.9575 176° South 403 464 43,000  Level Indianapolis Center
01:40PM 36.1869 -82.9453 175° South 403 464 43,000  Level Indianapolis Center
01:41PM 36.0747 -82.9358 176° South 404 465 43,000  Level Indianapolis Center
01:42PM 35.9639 -82.9233 175° South 399 459 43,000  Level Indianapolis Center
01:43PM 35.8550 -82.9139 176° South 392 451 43,000  Level Indianapolis Center
01:44PM 35.7292 -82.9014 175° South 388 447 43,000  Level Indianapolis Center
01:45PM 35.6128 -82.8917 176° South 393 452 43,000  Level Atlanta Center
01:46PM 35.5000 -82.8806 175° South 398 458 43,000  Level Atlanta Center
01:47PM 35.3933 -82.8642 173° South 406 467 43,000  Level Atlanta Center
01:48PM 35.2850 -82.8633 180° South 412 474 43,000  Level Atlanta Center
01:49PM 35.1722 -82.8469 173° South 412 474 43,000  Level Atlanta Center
01:50PM 35.0553 -82.8361 176° South 417 480 43,000  Level Atlanta Center
01:51PM 34.9381 -82.8250 176° South 417 480 43,000  Level Atlanta Center
01:52PM 34.8275 -82.8142 175° South 417 480 43,000  Level Atlanta Center
01:53PM 34.7125 -82.8056 176° South 417 480 43,000  Level Atlanta Center
01:54PM 34.5808 -82.7850 173° South 434 499 43,000  Level Atlanta Center
01:55PM 34.4703 -82.7764 176° South 423 487 43,000  Level Atlanta Center
01:56PM 34.3553 -82.7681 177° South 417 480 43,000  Level Atlanta Center
01:57PM 34.2425 -82.7547 174° South 417 480 43,000  Level Atlanta Center
01:58PM 34.1278 -82.7464 177° South 417 480 43,000 -60 Level Atlanta Center
01:59PM 34.0106 -82.7331 175° South 424 488 42,900 -660 Descending Atlanta Center
02:00PM 33.8936 -82.7250 177° South 424 488 41,700 -1,260 Descending Atlanta Center
02:01PM 33.7914 -82.7164 176° South 424 488 40,400 -1,440 Descending Atlanta Center
02:02PM 33.6722 -82.7058 176° South 424 488 38,900 -1,560 Descending Atlanta Center
02:03PM 33.5572 -82.6953 176° South 421 484 37,300 -1,560 Descending Atlanta Center
02:04PM 33.4425 -82.6844 175° South 421 484 35,800 -1,440 Descending Atlanta Center
02:05PM 33.3378 -82.6761 176° South 421 484 34,500 -1,560 Descending Atlanta Center
02:06PM 33.2000 -82.6611 175° South 421 484 32,700 -1,680 Descending Atlanta Center
02:07PM 33.0831 -82.6506 176° South 421 484 31,200 -1,380 Descending Atlanta Center
02:08PM 32.9639 -82.6400 176° South 427 491 30,000 -600 Descending Atlanta Center
02:09PM 32.8447 -82.6294 176° South 427 491 30,000  Level Atlanta Center
02:10PM 32.7256 -82.6167 175° South 427 491 30,000  Level Atlanta Center
02:11PM 32.6128 -82.6036 174° South 436 502 30,000  Level Atlanta Center
02:13PM 32.4272 -82.5897 176° South 443 510 30,000  Level Jacksonville Center
02:14PM 32.3081 -82.5781 175° South 443 510 30,000 -780 Level Jacksonville Center
02:15PM 32.1892 -82.5686 176° South 443 510 28,500 -1,980 Descending Jacksonville Center
02:16PM 32.0700 -82.5567 175° South 443 510 26,100 -1,500 Descending Jacksonville Center
02:17PM 31.9447 -82.5475 176° South 429 494 25,500 -1,020 Descending Jacksonville Center
02:18PM 31.8342 -82.5356 175° South 417 480 24,100 -780 Descending Jacksonville Center
02:19PM 31.7192 -82.5239 175° South 411 473 24,000 -900 Descending Jacksonville Center
02:20PM 31.6128 -82.5169 177° South 403 464 22,400 -1,800 Descending Jacksonville Center
02:21PM 31.5042 -82.4978 171° South 398 458 20,400 -2,040 Descending Jacksonville Center
02:22PM 31.4017 -82.4447 156° South 390 449 18,400 -1,920 Descending Jacksonville Center
02:23PM 31.3094 -82.3989 157° South 397 457 16,600 -1,800 Descending Jacksonville Center
02:24PM 31.2133 -82.3508 157° South 391 450 14,900 -1,860 Descending Jacksonville Center
02:24PM 31.1881 -82.3364 154° Southeast 368 423 14,400 -1,800 Descending Jacksonville Center
02:24PM 31.1506 -82.3172 156° South 363 418 13,800 -1,320 Descending Jacksonville Center
02:25PM 31.1192 -82.3053 162° South 379 436 13,400 -1,620 Descending Jacksonville Center
02:25PM 31.0583 -82.2717 155° Southeast 360 414 12,200 -1,440 Descending Jacksonville Center
02:26PM 31.0292 -82.2622 164° South 368 423 12,000 -240 Descending Jacksonville Center
02:26PM 30.9642 -82.2167 149° Southeast 352 405 12,000  Level Jacksonville Center
02:27PM 30.9475 -82.2022 143° Southeast 356 410 12,000 -420 Level Jacksonville Center
02:27PM 30.8867 -82.1494 143° Southeast 349 402 11,600 -720 Descending Jacksonville Center
02:28PM 30.8697 -82.1397 154° Southeast 351 404 11,300 -1,620 Descending Jacksonville Center
02:28PM 30.8133 -82.1114 157° South 282 325 10,000 -1,620 Descending Jacksonville Center
02:29PM 30.7944 -82.1017 156° South 323 372 9,700 -2,220 Descending Jacksonville Center
02:29PM 30.7442 -82.0756 156° South 273 314 7,800 -2,220 Descending Jacksonville Center
02:30PM 30.7253 -82.0661 157° South 295 339 7,500 -1,380 Descending Jacksonville Center
02:30PM 30.6603 -82.0328 156° South 281 323 6,300 -1,380 Descending Jacksonville Center
02:31PM 30.6519 -82.0281 154° Southeast 290 334 6,200 -1,620 Descending Jacksonville Center
02:31PM 30.5933 -82.0019 159° South 277 319 4,800 -1,620 Descending Jacksonville Center
02:32PM 30.5808 -81.9997 171° South 280 322 4,600 -840 Descending Jacksonville Center
02:32PM 30.5222 -81.9761 161° South 263 303 4,000 -660 Descending Jacksonville Center
02:33PM 30.5117 -81.9692 150° Southeast 274 315 4,000  Level Jacksonville Center
02:33PM 30.4550 -81.9431 158° South 266 306 4,000  Level Jacksonville Center
02:34PM 30.4425 -81.9383 162° South 269 310 4,000  Level Jacksonville Center
02:34PM 30.3714 -81.9392 181° South 267 307 4,000 -420 Level Jacksonville Center
02:35PM 30.3192 -81.9058 151° Southeast 211 243 3,300 -1,500 Descending Jacksonville Center
02:36PM 30.2853 -81.8725 140° Southeast 185 213 1,200 -2,340 Descending Jacksonville Center
02:38PM 30.2167 -81.8667 257° West  Level FlightAware Approximate
02:45PM 30.2188 -81.8772 257° West  Level Estimated
02:46PM 30.2188 -81.8772 257° West  Level Estimated